Time;durP1;ratioP1;P1;durP2;ratioP2;P2;SDS_P1;SDS_P2;PMS_P1;PMS_P2;Temp;Humidity;BMP_temperature;BMP_pressure;BME280_temperature;BME280_humidity;BME280_pressure;Samples;Min_cycle;Max_cycle;Signal;HPM_P1;HPM_P2
2021/06/20 00:00:37;;;;;;;8.15;0.82;;;26.50;43.70;;;;;;4374721;32;20148;-37
2021/06/20 00:03:04;;;;;;;5.87;0.82;;;26.50;44.10;;;;;;4373957;32;20129;-37
2021/06/20 00:05:32;;;;;;;6.75;0.93;;;26.50;44.30;;;;;;4388301;32;20075;-38
2021/06/20 00:08:00;;;;;;;5.85;0.80;;;26.50;44.00;;;;;;4387481;32;20069;-37
2021/06/20 00:10:27;;;;;;;2.47;0.70;;;26.50;43.90;;;;;;4376280;32;20094;-37
2021/06/20 00:12:54;;;;;;;6.05;0.90;;;26.50;43.60;;;;;;4358170;32;20720;-37
2021/06/20 00:15:21;;;;;;;7.72;0.70;;;26.60;43.50;;;;;;4358580;32;20109;-36
2021/06/20 00:17:47;;;;;;;10.95;0.95;;;26.70;43.40;;;;;;4345876;32;20063;-37
2021/06/20 00:20:16;;;;;;;9.43;0.88;;;26.70;43.20;;;;;;4345655;32;20069;-37
2021/06/20 00:22:43;;;;;;;5.07;0.70;;;26.80;43.30;;;;;;4358295;32;20082;-38
2021/06/20 00:25:11;;;;;;;4.05;0.73;;;26.80;43.30;;;;;;4327999;33;20678;-36
2021/06/20 00:27:37;;;;;;;3.75;0.85;;;26.80;43.20;;;;;;4328453;33;20068;-35
2021/06/20 00:30:09;;;;;;;2.42;0.80;;;26.90;43.20;;;;;;4286603;33;20087;-35
2021/06/20 00:32:36;;;;;;;3.30;0.60;;;26.90;43.10;;;;;;4299656;33;20104;-36
2021/06/20 00:35:04;;;;;;;5.57;0.90;;;27.00;43.00;;;;;;4299137;33;20067;-36
2021/06/20 00:37:31;;;;;;;4.30;0.80;;;27.00;43.20;;;;;;4299262;33;20203;-37
2021/06/20 00:39:57;;;;;;;5.20;0.82;;;26.90;43.60;;;;;;4299084;33;20106;-37
2021/06/20 00:42:24;;;;;;;5.57;1.05;;;26.80;43.90;;;;;;4287164;33;20106;-36
2021/06/20 00:44:50;;;;;;;6.55;0.82;;;26.70;44.20;;;;;;4299081;33;20102;-37
2021/06/20 00:47:17;;;;;;;9.43;1.12;;;26.60;44.60;;;;;;4299752;33;20588;-37
2021/06/20 00:49:44;;;;;;;7.75;0.95;;;26.50;45.00;;;;;;4320649;33;20104;-38
2021/06/20 00:52:12;;;;;;;5.80;0.93;;;26.30;45.10;;;;;;4343588;33;20184;-38
2021/06/20 00:54:47;;;;;;;4.05;1.12;;;26.30;45.50;;;;;;4331684;33;20231;-39
2021/06/20 00:57:20;;;;;;;5.57;0.85;;;26.30;45.60;;;;;;4360076;32;20059;-36
2021/06/20 00:59:50;;;;;;;4.55;0.80;;;26.30;45.80;;;;;;4361666;32;20081;-37
2021/06/20 01:02:18;;;;;;;9.60;0.77;;;26.30;45.80;;;;;;4390212;32;20069;-36
2021/06/20 01:04:47;;;;;;;4.62;1.12;;;26.30;45.90;;;;;;4389648;32;20157;-35
2021/06/20 01:07:15;;;;;;;4.85;0.80;;;26.30;45.80;;;;;;4389570;32;20081;-35
2021/06/20 01:09:41;;;;;;;6.50;0.82;;;26.50;45.90;;;;;;4390123;32;20154;-36
2021/06/20 01:12:08;;;;;;;5.07;0.88;;;26.60;45.70;;;;;;4388506;32;20074;-36
2021/06/20 01:14:35;;;;;;;6.43;1.30;;;26.80;45.50;;;;;;4390272;32;20066;-35
2021/06/20 01:17:01;;;;;;;3.75;0.88;;;27.10;45.10;;;;;;4388647;32;20551;-38
2021/06/20 01:19:28;;;;;;;4.20;0.73;;;27.30;44.50;;;;;;4389910;32;20068;-36
2021/06/20 01:21:55;;;;;;;5.28;0.82;;;27.60;43.90;;;;;;4387470;32;20122;-36
2021/06/20 01:24:21;;;;;;;10.00;1.75;;;27.80;43.70;;;;;;4389871;32;20089;-34
2021/06/20 01:26:48;;;;;;;10.88;1.00;;;27.90;43.70;;;;;;4387970;32;20091;-37
2021/06/20 01:29:16;;;;;;;7.00;1.05;;;27.90;43.30;;;;;;4389800;32;20132;-37
2021/06/20 01:31:51;;;;;;;9.48;1.65;;;27.90;43.20;;;;;;4389259;32;20540;-37
2021/06/20 01:34:17;;;;;;;11.68;3.60;;;27.90;43.40;;;;;;4389867;32;20069;-37
2021/06/20 01:36:44;;;;;;;6.57;1.00;;;27.90;43.40;;;;;;4389343;32;20555;-37
2021/06/20 01:39:11;;;;;;;7.78;0.90;;;28.00;43.40;;;;;;4389602;32;20097;-37
2021/06/20 01:41:38;;;;;;;11.52;1.50;;;28.00;43.30;;;;;;4389633;32;20558;-37
2021/06/20 01:44:05;;;;;;;7.72;1.25;;;28.10;43.30;;;;;;4375204;32;20579;-35
2021/06/20 01:46:31;;;;;;;7.50;0.82;;;28.20;43.20;;;;;;4389102;32;20176;-36
2021/06/20 01:48:58;;;;;;;5.57;1.35;;;28.40;43.30;;;;;;4389076;32;20097;-36
2021/06/20 01:51:24;;;;;;;4.87;1.02;;;28.50;43.00;;;;;;4389265;32;20072;-35
2021/06/20 01:53:50;;;;;;;4.32;0.73;;;28.70;42.80;;;;;;4375208;32;20104;-35
2021/06/20 01:56:17;;;;;;;4.47;0.62;;;29.00;42.40;;;;;;4389045;32;20474;-36
2021/06/20 01:58:43;;;;;;;4.30;0.80;;;29.20;41.80;;;;;;4389317;32;20073;-36
2021/06/20 02:01:09;;;;;;;1.25;0.60;;;29.40;41.60;;;;;;4375320;32;20173;-37
2021/06/20 02:03:36;;;;;;;2.15;0.80;;;29.60;41.00;;;;;;4389422;32;20137;-36
2021/06/20 02:06:02;;;;;;;4.97;0.77;;;29.70;40.60;;;;;;4371106;32;20197;-36
2021/06/20 02:08:29;;;;;;;3.15;0.77;;;29.70;40.40;;;;;;4371812;32;20158;-37
2021/06/20 02:10:56;;;;;;;4.15;0.62;;;29.80;40.40;;;;;;4371538;32;20113;-36
2021/06/20 02:13:27;;;;;;;3.83;0.60;;;29.90;40.20;;;;;;4371916;32;20062;-36
2021/06/20 02:15:54;;;;;;;3.25;1.10;;;30.00;40.00;;;;;;4371533;32;20082;-37
2021/06/20 02:18:20;;;;;;;6.25;0.60;;;30.20;39.60;;;;;;4371169;32;20072;-36
2021/06/20 02:20:47;;;;;;;4.90;0.80;;;30.30;39.40;;;;;;4358894;32;20077;-36
2021/06/20 02:23:14;;;;;;;5.03;0.70;;;30.40;39.20;;;;;;4371757;32;20179;-36
2021/06/20 02:25:41;;;;;;;9.93;1.00;;;30.50;39.00;;;;;;4371349;32;20600;-37
2021/06/20 02:28:08;;;;;;;10.07;1.10;;;30.60;38.70;;;;;;4371070;32;20632;-37
2021/06/20 02:30:34;;;;;;;4.95;0.70;;;30.80;38.90;;;;;;4370866;32;20082;-37
2021/06/20 02:33:01;;;;;;;6.85;0.60;;;31.10;38.90;;;;;;4370697;32;20069;-36
2021/06/20 02:35:28;;;;;;;3.50;1.15;;;31.40;38.40;;;;;;4371303;32;20089;-36
2021/06/20 02:37:54;;;;;;;6.15;0.70;;;31.60;37.80;;;;;;4371360;32;20089;-36
2021/06/20 02:40:21;;;;;;;3.72;0.60;;;31.80;37.20;;;;;;4371317;32;20093;-36
2021/06/20 02:42:47;;;;;;;2.75;0.85;;;31.90;37.00;;;;;;4374774;32;20094;-35
2021/06/20 02:45:20;;;;;;;4.75;0.70;;;31.80;36.90;;;;;;4388526;32;20057;-36
2021/06/20 02:47:47;;;;;;;3.20;0.50;;;31.90;37.10;;;;;;4392836;32;20054;-35
2021/06/20 02:50:15;;;;;;;3.70;0.52;;;32.10;36.70;;;;;;4403571;32;20572;-36
2021/06/20 02:52:43;;;;;;;5.53;0.80;;;32.30;36.50;;;;;;4389877;32;20081;-36
2021/06/20 02:55:10;;;;;;;5.12;0.62;;;32.40;36.20;;;;;;4389613;32;20145;-37
2021/06/20 02:57:37;;;;;;;3.87;0.60;;;32.60;36.50;;;;;;4389313;32;20526;-36
2021/06/20 03:00:04;;;;;;;3.50;0.60;;;32.90;36.10;;;;;;4389090;32;20073;-37
2021/06/20 03:02:31;;;;;;;3.75;0.80;;;33.10;35.40;;;;;;4403743;32;20112;-37
2021/06/20 03:04:58;;;;;;;2.92;0.70;;;33.30;35.10;;;;;;4358352;32;20093;-37
2021/06/20 03:07:24;;;;;;;4.78;0.75;;;33.30;34.90;;;;;;4370795;32;20101;-36
2021/06/20 03:09:51;;;;;;;6.07;0.85;;;33.30;35.00;;;;;;4370775;32;20509;-36
2021/06/20 03:12:17;;;;;;;3.00;0.80;;;33.40;35.10;;;;;;4370355;32;20093;-36
2021/06/20 03:14:44;;;;;;;3.30;0.50;;;33.50;35.00;;;;;;4370712;32;20579;-37
2021/06/20 03:17:11;;;;;;;6.12;0.65;;;33.70;34.60;;;;;;4358521;32;20113;-37
2021/06/20 03:19:38;;;;;;;3.22;0.70;;;34.00;34.40;;;;;;4370579;32;20090;-37
2021/06/20 03:22:05;;;;;;;4.30;0.82;;;34.20;34.10;;;;;;4370340;32;20579;-36
2021/06/20 03:24:34;;;;;;;2.30;0.60;;;34.30;33.80;;;;;;4370755;32;20085;-36
2021/06/20 03:27:01;;;;;;;1.80;0.60;;;34.40;33.70;;;;;;4370429;32;20541;-37
2021/06/20 03:29:27;;;;;;;2.45;0.68;;;34.60;33.50;;;;;;4370533;32;20066;-36
2021/06/20 03:31:54;;;;;;;4.55;1.08;;;34.50;33.10;;;;;;4370766;32;20597;-37
2021/06/20 03:34:20;;;;;;;4.53;0.70;;;34.30;33.30;;;;;;4370394;32;20070;-37
2021/06/20 03:36:47;;;;;;;3.72;0.60;;;34.00;33.40;;;;;;4370879;32;20062;-36
2021/06/20 03:39:13;;;;;;;3.62;0.70;;;33.80;33.80;;;;;;4370772;32;20524;-36
2021/06/20 03:41:40;;;;;;;7.80;0.90;;;33.70;33.80;;;;;;4364419;32;20061;-36
2021/06/20 03:44:07;;;;;;;2.65;0.70;;;33.50;33.90;;;;;;4404233;32;20064;-36
2021/06/20 03:46:37;;;;;;;5.45;0.77;;;33.30;34.10;;;;;;4406078;32;20111;-36
2021/06/20 03:49:04;;;;;;;4.00;0.70;;;33.00;34.60;;;;;;4367647;32;20054;-36
2021/06/20 03:51:31;;;;;;;4.15;1.10;;;33.00;35.20;;;;;;4390672;32;20493;-37
2021/06/20 03:53:58;;;;;;;9.18;0.85;;;33.10;35.30;;;;;;4390788;32;20184;-37
2021/06/20 03:56:24;;;;;;;2.92;0.85;;;33.30;35.00;;;;;;4376962;32;20058;-36
2021/06/20 03:58:50;;;;;;;4.00;0.60;;;33.50;34.60;;;;;;4364775;32;20098;-36
2021/06/20 04:01:17;;;;;;;2.35;0.70;;;33.60;34.40;;;;;;4391236;32;20062;-37
2021/06/20 04:03:43;;;;;;;4.97;0.60;;;33.60;34.50;;;;;;4390527;32;20092;-36
2021/06/20 04:06:10;;;;;;;4.53;0.80;;;33.60;34.50;;;;;;4376778;32;20085;-36
2021/06/20 04:08:36;;;;;;;1.75;0.70;;;33.80;34.60;;;;;;4391065;32;20085;-37
2021/06/20 04:11:03;;;;;;;3.25;0.60;;;34.00;34.50;;;;;;4376757;32;20074;-35
2021/06/20 04:13:29;;;;;;;2.67;0.70;;;34.30;34.50;;;;;;4390932;32;20518;-37
2021/06/20 04:15:56;;;;;;;3.03;0.70;;;34.40;34.10;;;;;;4391046;32;20085;-36
2021/06/20 04:18:23;;;;;;;3.35;0.73;;;34.30;33.70;;;;;;4390703;32;20213;-36
2021/06/20 04:20:49;;;;;;;2.95;0.70;;;34.20;33.90;;;;;;4376707;32;20212;-36
2021/06/20 04:23:16;;;;;;;2.45;0.68;;;34.10;34.00;;;;;;4391171;32;20101;-37
2021/06/20 04:25:43;;;;;;;1.15;0.60;;;34.00;34.10;;;;;;4390371;32;20069;-37
2021/06/20 04:28:09;;;;;;;2.58;0.50;;;33.90;34.60;;;;;;4376112;32;20451;-37
2021/06/20 04:30:35;;;;;;;4.80;1.10;;;33.90;34.40;;;;;;4376272;32;20073;-37
2021/06/20 04:33:03;;;;;;;2.00;0.70;;;34.00;34.30;;;;;;4376024;32;20070;-37
2021/06/20 04:35:33;;;;;;;1.73;0.60;;;34.00;34.20;;;;;;4390381;32;20081;-37
2021/06/20 04:37:59;;;;;;;1.85;0.88;;;34.00;34.10;;;;;;4376044;32;20054;-35
2021/06/20 04:40:26;;;;;;;4.62;1.23;;;34.00;34.30;;;;;;4390175;32;20068;-36
2021/06/20 04:43:05;;;;;;;4.82;1.02;;;34.10;34.10;;;;;;4389899;32;20069;-36
2021/06/20 04:45:31;;;;;;;1.58;1.15;;;34.10;34.00;;;;;;4390101;32;20073;-37
2021/06/20 04:47:58;;;;;;;4.75;1.48;;;34.20;34.00;;;;;;4395327;32;20089;-37
2021/06/20 04:50:24;;;;;;;5.97;1.40;;;33.90;33.80;;;;;;4391177;32;20187;-36
2021/06/20 04:52:51;;;;;;;1.50;1.00;;;33.70;34.10;;;;;;4405309;32;20121;-37
2021/06/20 04:55:17;;;;;;;4.40;0.90;;;33.60;34.70;;;;;;4390838;32;20073;-37
2021/06/20 04:57:44;;;;;;;5.28;0.80;;;33.70;34.80;;;;;;4405308;32;20081;-36
2021/06/20 05:00:11;;;;;;;4.57;0.90;;;33.80;34.30;;;;;;4404801;32;20453;-36
2021/06/20 05:02:38;;;;;;;1.85;0.80;;;33.80;34.20;;;;;;4405227;32;20081;-37
2021/06/20 05:05:05;;;;;;;4.57;1.12;;;33.90;34.10;;;;;;4405005;32;20072;-37
2021/06/20 05:07:32;;;;;;;5.10;0.82;;;34.00;34.20;;;;;;4404956;32;20596;-37
2021/06/20 05:09:59;;;;;;;1.95;1.15;;;34.20;33.90;;;;;;4404769;32;20096;-37
2021/06/20 05:12:25;;;;;;;3.17;0.80;;;34.30;33.50;;;;;;4404662;32;20150;-36
2021/06/20 05:14:52;;;;;;;2.97;0.80;;;34.40;33.40;;;;;;4405159;32;20173;-36
2021/06/20 05:17:19;;;;;;;4.32;1.00;;;34.50;33.50;;;;;;4390922;32;20053;-37
2021/06/20 05:19:46;;;;;;;3.83;1.10;;;34.60;33.00;;;;;;4404984;32;20070;-37
2021/06/20 05:22:12;;;;;;;3.30;0.80;;;34.70;32.70;;;;;;4404886;32;20129;-37
2021/06/20 05:24:40;;;;;;;4.55;1.02;;;34.60;32.90;;;;;;4404768;32;20064;-39
2021/06/20 05:27:08;;;;;;;2.80;0.77;;;34.50;33.20;;;;;;4405082;32;20073;-38
2021/06/20 05:29:34;;;;;;;1.48;0.80;;;34.50;33.30;;;;;;4390952;32;20065;-38
2021/06/20 05:32:01;;;;;;;3.20;0.62;;;34.60;33.40;;;;;;4390592;32;20096;-38
2021/06/20 05:34:27;;;;;;;4.97;0.98;;;34.70;33.20;;;;;;4404888;32;20065;-36
2021/06/20 05:36:54;;;;;;;4.82;0.80;;;34.70;33.10;;;;;;4404554;32;20073;-38
2021/06/20 05:39:20;;;;;;;3.72;0.80;;;34.80;33.00;;;;;;4404722;32;20166;-38
2021/06/20 05:41:47;;;;;;;2.30;0.70;;;34.90;32.70;;;;;;4405011;32;20095;-37
2021/06/20 05:44:13;;;;;;;3.45;0.88;;;35.00;32.30;;;;;;4390248;32;20076;-37
2021/06/20 05:46:40;;;;;;;3.33;0.90;;;35.10;32.20;;;;;;4404713;32;20046;-37
2021/06/20 05:49:06;;;;;;;1.58;0.90;;;35.30;32.10;;;;;;4391700;32;20073;-37
2021/06/20 05:51:32;;;;;;;4.72;0.80;;;35.40;31.80;;;;;;4388688;32;20093;-38
2021/06/20 05:53:59;;;;;;;6.25;1.00;;;35.60;31.50;;;;;;4388899;32;20073;-37
2021/06/20 05:56:26;;;;;;;6.90;0.70;;;35.70;31.30;;;;;;4388809;32;20226;-36
2021/06/20 05:58:52;;;;;;;3.58;0.98;;;35.60;30.80;;;;;;4375099;32;20093;-39
2021/06/20 06:01:18;;;;;;;2.37;0.73;;;35.60;31.10;;;;;;4389017;32;20084;-38
2021/06/20 06:03:45;;;;;;;2.87;0.70;;;35.60;31.30;;;;;;4388695;32;20450;-37
2021/06/20 06:06:11;;;;;;;5.62;0.85;;;35.70;31.60;;;;;;4388637;32;20072;-38
2021/06/20 06:08:38;;;;;;;2.70;0.70;;;35.90;31.30;;;;;;4388935;32;20156;-37
2021/06/20 06:11:04;;;;;;;2.85;0.85;;;36.20;30.90;;;;;;4389024;32;20078;-36
2021/06/20 06:13:31;;;;;;;3.85;1.50;;;36.40;30.70;;;;;;4388612;32;20489;-37
2021/06/20 06:15:58;;;;;;;6.43;0.90;;;36.70;30.40;;;;;;4388649;32;20173;-38
2021/06/20 06:18:24;;;;;;;1.62;0.95;;;37.00;29.80;;;;;;4388953;32;20559;-38
2021/06/20 06:20:51;;;;;;;1.83;0.85;;;37.20;28.90;;;;;;4388746;32;20069;-38
2021/06/20 06:23:17;;;;;;;3.25;0.98;;;37.30;29.00;;;;;;4388787;32;20105;-38
2021/06/20 06:25:43;;;;;;;3.03;0.80;;;37.20;29.20;;;;;;4388943;32;20161;-38
2021/06/20 06:28:10;;;;;;;2.40;0.80;;;37.20;29.70;;;;;;4388596;32;20603;-37
2021/06/20 06:30:37;;;;;;;3.80;0.80;;;37.10;29.30;;;;;;4388293;32;20061;-37
2021/06/20 06:33:05;;;;;;;1.70;0.98;;;37.10;29.20;;;;;;4388208;32;20061;-37
2021/06/20 06:35:31;;;;;;;5.35;1.02;;;37.20;29.30;;;;;;4388704;32;20076;-37
2021/06/20 06:37:58;;;;;;;4.00;1.00;;;37.40;29.30;;;;;;4388307;32;20073;-36
2021/06/20 06:40:25;;;;;;;4.20;0.90;;;37.70;29.10;;;;;;4374720;32;20054;-38
2021/06/20 06:42:51;;;;;;;4.05;1.08;;;37.90;29.00;;;;;;4388444;32;20076;-38
2021/06/20 06:45:17;;;;;;;4.35;0.85;;;38.10;28.80;;;;;;4373988;32;20078;-37
2021/06/20 06:47:44;;;;;;;4.22;0.90;;;38.30;28.70;;;;;;4378563;32;20184;-39
2021/06/20 06:50:11;;;;;;;4.40;1.00;;;38.20;28.50;;;;;;4403681;32;20115;-39
2021/06/20 06:52:37;;;;;;;4.53;0.80;;;38.30;28.40;;;;;;4404105;32;20069;-39
2021/06/20 06:55:09;;;;;;;3.08;1.05;;;38.30;28.50;;;;;;4403691;32;20069;-37
2021/06/20 06:57:36;;;;;;;2.37;1.08;;;38.30;28.70;;;;;;4403238;32;20089;-39
2021/06/20 07:00:06;;;;;;;5.70;1.10;;;38.20;28.60;;;;;;4403238;32;20157;-38
2021/06/20 07:02:33;;;;;;;3.15;1.00;;;38.20;28.50;;;;;;4403828;32;20065;-38
2021/06/20 07:04:59;;;;;;;3.22;0.90;;;38.20;28.50;;;;;;4404122;32;20076;-38
2021/06/20 07:07:26;;;;;;;3.10;0.90;;;38.20;28.70;;;;;;4403111;32;20049;-38
2021/06/20 07:09:58;;;;;;;2.53;0.80;;;38.20;28.70;;;;;;4403243;32;20098;-39
2021/06/20 07:12:27;;;;;;;2.87;0.80;;;38.30;28.80;;;;;;4390192;32;20072;-38
2021/06/20 07:14:54;;;;;;;6.87;0.88;;;38.30;28.70;;;;;;4403027;32;20077;-37
2021/06/20 07:17:20;;;;;;;4.37;1.08;;;38.50;29.00;;;;;;4403102;32;20097;-38
2021/06/20 07:19:48;;;;;;;1.58;0.88;;;38.60;28.80;;;;;;4389022;32;20077;-38
2021/06/20 07:22:14;;;;;;;5.40;1.00;;;38.60;28.50;;;;;;4384961;32;20076;-39
2021/06/20 07:24:41;;;;;;;5.28;1.00;;;38.50;28.40;;;;;;4385611;32;20073;-37
2021/06/20 07:27:07;;;;;;;4.70;1.05;;;38.50;28.20;;;;;;4385358;32;20077;-37
2021/06/20 07:29:33;;;;;;;3.58;0.85;;;38.30;28.50;;;;;;4385130;32;20061;-37
2021/06/20 07:32:00;;;;;;;4.90;1.00;;;38.20;28.40;;;;;;4385445;32;20058;-38
2021/06/20 07:34:28;;;;;;;1.83;1.00;;;37.90;28.60;;;;;;4385657;32;20065;-37
2021/06/20 07:36:56;;;;;;;4.47;0.85;;;37.70;28.90;;;;;;4385201;32;20074;-37
2021/06/20 07:39:22;;;;;;;5.43;1.05;;;37.50;29.10;;;;;;4385340;32;20509;-38
2021/06/20 07:41:48;;;;;;;3.78;0.90;;;37.40;29.50;;;;;;4385011;32;20069;-37
2021/06/20 07:44:15;;;;;;;1.87;0.80;;;37.40;29.60;;;;;;4384991;32;20125;-37
2021/06/20 07:46:41;;;;;;;3.28;1.00;;;37.50;29.70;;;;;;4385223;32;20081;-38
2021/06/20 07:49:08;;;;;;;4.43;1.08;;;37.70;29.60;;;;;;4360104;32;20074;-38
2021/06/20 07:51:35;;;;;;;4.47;1.05;;;37.80;29.50;;;;;;4370020;32;20537;-37
2021/06/20 07:54:01;;;;;;;5.65;1.30;;;38.10;29.40;;;;;;4357880;32;20494;-39
2021/06/20 07:56:27;;;;;;;8.27;1.10;;;38.40;29.30;;;;;;4369986;32;20566;-38
2021/06/20 07:58:57;;;;;;;4.05;1.25;;;38.80;29.10;;;;;;4360876;32;20520;-39
2021/06/20 08:01:25;;;;;;;1.67;0.80;;;39.10;28.80;;;;;;4387778;32;20088;-38
2021/06/20 08:03:51;;;;;;;3.67;1.15;;;39.30;28.80;;;;;;4373376;32;20104;-39
2021/06/20 08:06:17;;;;;;;3.30;1.00;;;39.40;28.70;;;;;;4387486;32;20158;-40
2021/06/20 08:08:44;;;;;;;4.30;1.10;;;39.50;28.40;;;;;;4373585;32;20070;-38
2021/06/20 08:11:10;;;;;;;4.82;1.12;;;39.50;28.80;;;;;;4354669;32;20647;-38
2021/06/20 08:13:37;;;;;;;5.55;1.25;;;39.40;28.90;;;;;;4354795;32;20075;-38
2021/06/20 08:16:04;;;;;;;4.55;0.98;;;39.40;28.20;;;;;;4354897;32;20091;-37
2021/06/20 08:18:30;;;;;;;2.90;0.90;;;39.20;28.40;;;;;;4355536;32;20070;-38
2021/06/20 08:20:56;;;;;;;2.72;0.90;;;39.00;28.60;;;;;;4354927;32;20553;-39
2021/06/20 08:23:23;;;;;;;1.80;1.00;;;38.90;28.20;;;;;;4355317;32;20071;-39
2021/06/20 08:25:49;;;;;;;3.67;1.12;;;38.90;28.90;;;;;;4354736;32;20081;-39
2021/06/20 08:28:16;;;;;;;2.00;1.00;;;38.80;28.80;;;;;;4355375;32;20090;-38
2021/06/20 08:30:42;;;;;;;2.60;0.80;;;39.00;28.70;;;;;;4356594;32;20110;-39
2021/06/20 08:33:09;;;;;;;3.17;1.00;;;39.10;28.50;;;;;;4357303;32;20603;-37
2021/06/20 08:35:35;;;;;;;3.12;0.90;;;39.20;28.30;;;;;;4358019;32;20070;-36
2021/06/20 08:38:02;;;;;;;4.25;1.00;;;39.40;28.30;;;;;;4358058;32;20090;-38
2021/06/20 08:40:28;;;;;;;1.98;0.73;;;39.80;28.20;;;;;;4357685;32;20074;-39
2021/06/20 08:42:57;;;;;;;3.67;0.90;;;39.90;28.00;;;;;;4345058;32;20077;-38
2021/06/20 08:45:23;;;;;;;3.55;1.42;;;40.00;27.90;;;;;;4357484;32;20095;-38
2021/06/20 08:47:50;;;;;;;5.35;0.88;;;40.00;27.10;;;;;;4354857;32;20073;-39
2021/06/20 08:50:17;;;;;;;4.47;0.80;;;40.00;27.30;;;;;;4391264;32;20064;-39
2021/06/20 08:52:45;;;;;;;10.93;1.05;;;39.90;27.50;;;;;;4405209;32;20069;-38
2021/06/20 08:55:12;;;;;;;2.37;0.85;;;39.80;27.70;;;;;;4405006;32;20061;-39
2021/06/20 08:57:42;;;;;;;3.20;0.90;;;39.70;27.70;;;;;;4404761;32;20509;-38
2021/06/20 09:00:19;;;;;;;2.62;0.82;;;39.60;27.70;;;;;;4405001;32;20527;-38
2021/06/20 09:02:59;;;;;;;4.03;0.85;;;39.60;27.90;;;;;;4405342;32;20088;-39
2021/06/20 09:05:26;;;;;;;4.60;0.93;;;39.50;27.90;;;;;;4405378;32;20179;-39
2021/06/20 09:07:53;;;;;;;2.85;0.80;;;39.40;28.20;;;;;;4375603;32;20088;-37
2021/06/20 09:10:22;;;;;;;5.97;1.10;;;39.40;28.30;;;;;;4389881;32;20077;-38
2021/06/20 09:12:57;;;;;;;9.38;1.23;;;39.40;28.10;;;;;;4389621;32;20225;-38
2021/06/20 09:15:36;;;;;;;2.80;0.80;;;39.50;27.20;;;;;;4389807;32;20726;-39
2021/06/20 09:18:10;;;;;;;2.70;1.05;;;39.50;26.70;;;;;;4389954;32;20073;-38
2021/06/20 09:20:43;;;;;;;3.83;0.80;;;39.50;26.40;;;;;;4386942;32;20156;-38
2021/06/20 09:23:16;;;;;;;4.53;1.00;;;39.40;26.00;;;;;;4387384;32;20125;-38
2021/06/20 09:25:45;;;;;;;3.33;1.20;;;39.30;27.20;;;;;;4374389;32;20089;-40
2021/06/20 09:28:12;;;;;;;10.77;1.33;;;39.10;26.60;;;;;;4387105;32;20566;-39
2021/06/20 09:30:50;;;;;;;2.92;1.02;;;39.10;27.10;;;;;;4387378;32;20066;-38
2021/06/20 09:33:17;;;;;;;2.85;1.00;;;39.00;26.50;;;;;;4387132;32;20069;-39
2021/06/20 09:35:58;;;;;;;2.25;0.90;;;39.00;26.50;;;;;;4386906;32;20467;-40
2021/06/20 09:38:31;;;;;;;2.10;0.90;;;39.10;26.60;;;;;;4386687;32;20123;-38
2021/06/20 09:41:13;;;;;;;2.25;0.80;;;39.20;27.60;;;;;;4386264;32;20058;-39
2021/06/20 09:43:55;;;;;;;2.47;0.90;;;39.40;28.30;;;;;;4374063;32;20128;-37
2021/06/20 09:46:21;;;;;;;2.55;0.77;;;39.30;27.40;;;;;;4375248;32;20186;-39
2021/06/20 09:48:48;;;;;;;2.62;1.00;;;39.30;27.20;;;;;;4363908;32;20471;-38
2021/06/20 09:51:26;;;;;;;7.03;1.15;;;39.40;26.30;;;;;;4371375;32;20074;-37
2021/06/20 09:53:52;;;;;;;4.05;1.02;;;39.50;25.90;;;;;;4371590;32;20077;-39
2021/06/20 09:56:24;;;;;;;6.20;1.08;;;39.50;25.60;;;;;;4371746;32;20059;-38
2021/06/20 09:59:05;;;;;;;4.30;1.08;;;39.60;26.70;;;;;;4373527;32;20054;-37
2021/06/20 10:01:35;;;;;;;2.35;0.80;;;39.70;25.00;;;;;;4373931;32;20526;-38
2021/06/20 10:04:04;;;;;;;4.30;0.95;;;39.70;25.10;;;;;;4374445;32;20065;-38
2021/06/20 10:06:31;;;;;;;3.30;1.05;;;39.70;25.40;;;;;;4375970;32;20133;-38
2021/06/20 10:08:58;;;;;;;2.40;1.02;;;39.80;25.10;;;;;;4340756;33;20188;-38
2021/06/20 10:11:24;;;;;;;4.05;1.00;;;39.90;27.90;;;;;;4329247;33;20098;-38
2021/06/20 10:13:51;;;;;;;4.40;1.67;;;39.80;27.80;;;;;;4329230;33;20077;-38
2021/06/20 10:16:32;;;;;;;2.90;0.80;;;39.60;28.10;;;;;;4341140;33;20078;-38
2021/06/20 10:19:15;;;;;;;3.75;1.60;;;39.40;27.90;;;;;;4329205;33;20122;-38
2021/06/20 10:21:58;;;;;;;4.12;1.35;;;39.20;27.60;;;;;;4329340;33;20078;-38
2021/06/20 10:24:24;;;;;;;6.55;0.90;;;39.10;26.80;;;;;;4330419;33;20082;-38
2021/06/20 10:27:04;;;;;;;11.90;1.80;;;39.20;26.40;;;;;;4328905;33;20070;-38
2021/06/20 10:29:34;;;;;;;6.03;0.80;;;39.30;25.90;;;;;;4341383;33;20073;-38
2021/06/20 10:32:14;;;;;;;2.58;1.02;;;39.30;25.50;;;;;;4341517;33;20067;-38
2021/06/20 10:35:01;;;;;;;2.80;0.98;;;39.60;25.50;;;;;;4341512;33;20074;-38
2021/06/20 10:37:38;;;;;;;9.52;0.77;;;39.70;25.50;;;;;;4341506;33;20077;-38
2021/06/20 10:40:35;;;;;;;1.40;0.82;;;39.90;25.00;;;;;;4341019;33;20937;-38
2021/06/20 10:43:22;;;;;;;4.43;1.50;;;39.90;25.20;;;;;;4341574;33;20124;-38
2021/06/20 10:45:49;;;;;;;3.20;1.05;;;39.80;25.30;;;;;;4352736;32;20080;-38
2021/06/20 10:48:43;;;;;;;2.62;0.90;;;39.70;25.50;;;;;;4355393;32;20588;-38
2021/06/20 10:51:21;;;;;;;3.03;1.10;;;39.70;25.60;;;;;;4355443;32;20078;-38
2021/06/20 10:53:47;;;;;;;4.75;0.95;;;39.70;25.70;;;;;;4343356;32;20059;-36
2021/06/20 10:56:22;;;;;;;4.20;0.95;;;39.70;26.00;;;;;;4355946;32;20675;-37
2021/06/20 10:58:51;;;;;;;7.20;1.10;;;39.80;26.00;;;;;;4356058;32;20551;-37
2021/06/20 11:01:19;;;;;;;6.72;1.00;;;40.00;25.90;;;;;;4356013;32;20051;-37
2021/06/20 11:03:52;;;;;;;3.08;1.40;;;40.10;25.40;;;;;;4355371;32;20062;-37
2021/06/20 11:06:23;;;;;;;3.00;1.27;;;40.10;25.50;;;;;;4355591;32;20098;-37
2021/06/20 11:09:07;;;;;;;3.15;0.88;;;40.00;25.20;;;;;;4355581;32;20070;-38
2021/06/20 11:11:35;;;;;;;6.80;1.10;;;39.90;25.20;;;;;;4355852;32;20085;-37
2021/06/20 11:14:07;;;;;;;7.28;0.90;;;39.80;25.10;;;;;;4355843;32;20090;-37
2021/06/20 11:16:39;;;;;;;4.15;1.37;;;39.80;25.20;;;;;;4343339;32;20537;-37
2021/06/20 11:19:18;;;;;;;2.55;0.80;;;40.00;25.20;;;;;;4362810;32;20073;-38
2021/06/20 11:22:05;;;;;;;5.78;1.37;;;40.00;24.70;;;;;;4402784;32;20077;-39
2021/06/20 11:24:34;;;;;;;7.40;1.62;;;40.10;25.00;;;;;;4389597;32;20060;-38
2021/06/20 11:27:21;;;;;;;5.30;0.90;;;40.20;25.10;;;;;;4403202;32;20065;-37
2021/06/20 11:29:52;;;;;;;3.75;1.00;;;40.30;24.70;;;;;;4403194;32;20160;-38
2021/06/20 11:32:34;;;;;;;4.68;1.17;;;40.20;24.60;;;;;;4402903;32;20085;-38
2021/06/20 11:35:03;;;;;;;4.72;0.90;;;40.30;24.90;;;;;;4389074;32;20065;-38
2021/06/20 11:37:47;;;;;;;6.40;1.20;;;40.30;24.60;;;;;;4403269;32;20074;-37
2021/06/20 11:40:24;;;;;;;0.88;0.70;;;40.30;24.70;;;;;;4388945;32;20081;-37
2021/06/20 11:42:53;;;;;;;2.15;0.85;;;40.20;24.70;;;;;;4403039;32;20056;-39
2021/06/20 11:45:23;;;;;;;4.47;1.00;;;40.10;24.50;;;;;;4402790;32;20157;-40
2021/06/20 11:47:51;;;;;;;1.45;0.90;;;40.10;24.50;;;;;;4384289;32;20455;-38
2021/06/20 11:50:27;;;;;;;4.95;1.62;;;40.10;24.90;;;;;;4373778;32;20069;-38
2021/06/20 11:53:09;;;;;;;1.60;0.88;;;40.20;24.90;;;;;;4373689;32;20165;-39
2021/06/20 11:55:40;;;;;;;5.28;1.08;;;40.30;24.70;;;;;;4387657;32;20096;-37
2021/06/20 11:58:14;;;;;;;3.55;1.02;;;40.40;24.80;;;;;;4374029;32;20168;-39
2021/06/20 12:00:43;;;;;;;1.83;1.10;;;40.40;24.70;;;;;;4387811;32;20054;-39
2021/06/20 12:03:12;;;;;;;5.22;0.98;;;40.20;24.80;;;;;;4387473;32;20145;-38
2021/06/20 12:05:58;;;;;;;9.90;1.73;;;40.20;24.80;;;;;;4389433;32;20077;-38
2021/06/20 12:08:25;;;;;;;3.60;0.98;;;40.40;25.00;;;;;;4377227;32;20469;-39
2021/06/20 12:10:52;;;;;;;4.07;1.00;;;40.40;24.80;;;;;;4376304;32;20074;-38
2021/06/20 12:13:19;;;;;;;6.28;1.10;;;40.40;24.90;;;;;;4376063;32;20058;-36
2021/06/20 12:15:46;;;;;;;4.07;1.20;;;40.30;25.00;;;;;;4390502;32;20470;-38
2021/06/20 12:18:14;;;;;;;7.00;1.73;;;40.30;24.90;;;;;;4390516;32;20104;-39
2021/06/20 12:20:46;;;;;;;2.55;0.90;;;40.30;25.20;;;;;;4376579;32;20162;-37
2021/06/20 12:23:35;;;;;;;0.90;0.62;;;40.20;24.80;;;;;;4390635;32;20082;-38
2021/06/20 12:26:02;;;;;;;3.15;1.25;;;40.10;24.90;;;;;;4364237;32;20077;-38
2021/06/20 12:28:29;;;;;;;4.47;1.10;;;40.00;25.10;;;;;;4390137;32;20072;-38
2021/06/20 12:30:56;;;;;;;2.47;1.10;;;39.90;25.20;;;;;;4376513;32;20106;-38
2021/06/20 12:33:24;;;;;;;2.67;1.45;;;39.90;25.10;;;;;;4390238;32;20084;-43
2021/06/20 12:36:03;;;;;;;3.53;1.80;;;39.90;25.50;;;;;;4390003;32;20046;-38
2021/06/20 12:38:33;;;;;;;1.92;1.10;;;39.80;25.30;;;;;;4390345;32;20581;-40
2021/06/20 12:41:00;;;;;;;2.10;0.93;;;39.80;25.40;;;;;;4390043;32;20485;-38
2021/06/20 12:43:27;;;;;;;4.47;0.95;;;39.80;25.40;;;;;;4376289;32;20072;-38
2021/06/20 12:46:08;;;;;;;4.35;0.80;;;39.80;25.10;;;;;;4376209;32;20062;-37
2021/06/20 12:48:36;;;;;;;4.40;1.00;;;39.90;25.20;;;;;;4399142;32;20053;-38
2021/06/20 12:51:04;;;;;;;3.80;1.15;;;39.90;25.00;;;;;;4405002;32;20053;-38
2021/06/20 12:53:34;;;;;;;2.80;0.95;;;40.00;25.20;;;;;;4405207;32;20053;-38